Time;durP1;ratioP1;P1;durP2;ratioP2;P2;SDS_P1;SDS_P2;PMS_P1;PMS_P2;Temp;Humidity;BMP_temperature;BMP_pressure;BME280_temperature;BME280_humidity;BME280_pressure;Samples;Min_cycle;Max_cycle;Signal;HPM_P1;HPM_P2
2022/12/11 00:00:44;;;;;;;23.13;9.50;;;;;;;;;;4995923;28;20579;-69
2022/12/11 00:03:10;;;;;;;18.95;10.40;;;;;;;;;;4995949;28;20031;-69
2022/12/11 00:05:39;;;;;;;18.67;10.38;;;;;;;;;;4995651;28;20466;-69
2022/12/11 00:08:05;;;;;;;21.58;10.07;;;;;;;;;;4995994;28;20493;-69
2022/12/11 00:10:31;;;;;;;16.42;9.18;;;;;;;;;;4995760;28;20120;-69
2022/12/11 00:12:57;;;;;;;18.60;9.90;;;;;;;;;;4993201;28;20509;-69
2022/12/11 00:15:22;;;;;;;22.13;10.75;;;;;;;;;;5006208;28;20041;-69
2022/12/11 00:17:48;;;;;;;24.35;11.80;;;;;;;;;;5010796;28;20471;-69
2022/12/11 00:20:13;;;;;;;24.23;10.93;;;;;;;;;;5011595;28;20584;-69
2022/12/11 00:22:39;;;;;;;24.05;12.10;;;;;;;;;;5012030;28;20164;-70
2022/12/11 00:25:05;;;;;;;22.80;10.95;;;;;;;;;;5010369;28;20397;-69
2022/12/11 00:27:30;;;;;;;21.98;10.98;;;;;;;;;;5009245;28;20026;-69
2022/12/11 00:29:56;;;;;;;24.55;11.20;;;;;;;;;;5006095;28;20499;-69
2022/12/11 00:32:21;;;;;;;23.95;11.48;;;;;;;;;;5010797;28;20033;-70
2022/12/11 00:34:47;;;;;;;20.98;11.27;;;;;;;;;;5009279;28;20046;-69
2022/12/11 00:37:12;;;;;;;21.42;11.48;;;;;;;;;;5012336;28;20037;-69
2022/12/11 00:39:38;;;;;;;18.42;9.57;;;;;;;;;;5012466;28;20073;-69
2022/12/11 00:42:05;;;;;;;18.73;9.20;;;;;;;;;;5011938;28;20424;-69
2022/12/11 00:44:31;;;;;;;18.02;9.20;;;;;;;;;;5012289;28;20026;-69
2022/12/11 00:46:56;;;;;;;22.65;10.82;;;;;;;;;;5012285;28;20092;-70
2022/12/11 00:49:22;;;;;;;19.30;9.32;;;;;;;;;;5012152;28;20041;-70
2022/12/11 00:51:47;;;;;;;19.13;9.35;;;;;;;;;;5012185;28;20022;-69
2022/12/11 00:54:13;;;;;;;19.27;9.70;;;;;;;;;;5012146;28;20053;-70
2022/12/11 00:56:38;;;;;;;18.08;9.88;;;;;;;;;;5012052;28;20022;-69
2022/12/11 00:59:04;;;;;;;18.10;8.77;;;;;;;;;;5012069;28;20025;-69
2022/12/11 01:01:29;;;;;;;17.00;9.70;;;;;;;;;;5010751;28;20025;-69
2022/12/11 01:03:55;;;;;;;19.83;9.63;;;;;;;;;;5011696;28;20091;-69
2022/12/11 01:06:23;;;;;;;16.33;8.80;;;;;;;;;;5012023;28;20032;-69
2022/12/11 01:10:22;;;;;;;18.15;9.32;;;;;;;;;;5012079;28;20018;-69
2022/12/11 01:11:38;;;;;;;19.17;10.38;;;;;;;;;;5011316;28;20440;-69
2022/12/11 01:14:04;;;;;;;24.02;10.48;;;;;;;;;;5011780;28;20030;-69
2022/12/11 01:16:29;;;;;;;20.55;10.27;;;;;;;;;;5011485;28;20127;-69
2022/12/11 01:18:56;;;;;;;20.05;10.50;;;;;;;;;;5011590;28;20018;-69
2022/12/11 01:21:21;;;;;;;25.25;11.75;;;;;;;;;;5011788;28;20108;-69
2022/12/11 01:23:49;;;;;;;20.27;11.00;;;;;;;;;;5012136;28;20454;-69
2022/12/11 01:26:14;;;;;;;22.33;10.90;;;;;;;;;;5012004;28;20046;-69
2022/12/11 01:28:41;;;;;;;24.23;10.88;;;;;;;;;;5011824;28;20339;-69
2022/12/11 01:31:11;;;;;;;18.55;9.82;;;;;;;;;;5011119;28;20125;-69
2022/12/11 01:33:37;;;;;;;16.88;9.30;;;;;;;;;;5011845;28;20049;-69
2022/12/11 01:36:16;;;;;;;19.48;9.82;;;;;;;;;;5000683;28;20041;-68
2022/12/11 01:38:42;;;;;;;20.60;9.07;;;;;;;;;;4992216;28;20034;-69
2022/12/11 01:41:08;;;;;;;19.38;9.43;;;;;;;;;;4992276;28;20041;-69
2022/12/11 01:43:34;;;;;;;19.58;9.23;;;;;;;;;;4992111;28;20027;-69
2022/12/11 01:45:59;;;;;;;19.00;9.07;;;;;;;;;;4992010;28;20084;-69
2022/12/11 01:48:28;;;;;;;19.67;8.65;;;;;;;;;;4991918;28;20037;-69
2022/12/11 01:50:58;;;;;;;17.77;9.07;;;;;;;;;;4990757;28;20026;-68
2022/12/11 01:53:29;;;;;;;17.27;9.05;;;;;;;;;;4992134;28;20085;-68
2022/12/11 01:55:57;;;;;;;19.83;8.80;;;;;;;;;;4992032;28;20537;-69
2022/12/11 01:58:27;;;;;;;19.13;10.20;;;;;;;;;;4991860;28;20033;-68
2022/12/11 02:00:53;;;;;;;17.95;10.15;;;;;;;;;;4991648;28;20477;-68
2022/12/11 02:03:18;;;;;;;20.42;10.52;;;;;;;;;;4991641;28;20089;-68
2022/12/11 02:05:44;;;;;;;19.20;9.40;;;;;;;;;;4992102;28;20026;-69
2022/12/11 02:08:10;;;;;;;19.55;9.77;;;;;;;;;;4991711;28;20045;-69
2022/12/11 02:10:45;;;;;;;18.42;9.57;;;;;;;;;;4992181;28;20023;-68
2022/12/11 02:13:17;;;;;;;18.70;10.25;;;;;;;;;;4991622;28;20064;-68
2022/12/11 02:16:04;;;;;;;19.30;10.07;;;;;;;;;;4991488;28;20113;-70
2022/12/11 02:18:37;;;;;;;18.80;9.95;;;;;;;;;;4991399;28;20066;-68
2022/12/11 02:21:17;;;;;;;19.33;9.50;;;;;;;;;;4991850;28;20026;-69
2022/12/11 02:23:52;;;;;;;23.42;10.25;;;;;;;;;;4992058;28;20105;-69
2022/12/11 02:26:33;;;;;;;21.73;10.77;;;;;;;;;;4991847;28;20116;-69
2022/12/11 02:29:06;;;;;;;23.50;11.10;;;;;;;;;;5006710;28;20116;-69
2022/12/11 02:31:49;;;;;;;22.30;11.82;;;;;;;;;;5011699;28;20018;-69
2022/12/11 02:34:33;;;;;;;25.08;12.02;;;;;;;;;;5010044;28;20369;-69
2022/12/11 02:37:06;;;;;;;26.60;13.00;;;;;;;;;;5011481;28;20030;-69
2022/12/11 02:39:34;;;;;;;33.50;13.23;;;;;;;;;;5011421;28;20097;-69
2022/12/11 02:42:00;;;;;;;28.67;13.43;;;;;;;;;;5010899;28;20037;-69
2022/12/11 02:44:32;;;;;;;33.53;13.75;;;;;;;;;;5009668;28;20022;-69
2022/12/11 02:46:58;;;;;;;40.30;13.82;;;;;;;;;;5010706;28;20116;-69
2022/12/11 02:49:27;;;;;;;36.65;15.13;;;;;;;;;;5010780;28;20030;-69
2022/12/11 02:51:55;;;;;;;43.95;15.98;;;;;;;;;;5011273;28;20385;-69
2022/12/11 02:54:30;;;;;;;53.35;17.95;;;;;;;;;;5011339;28;20447;-69
2022/12/11 02:57:02;;;;;;;53.58;17.48;;;;;;;;;;5010702;28;20025;-69
2022/12/11 02:59:35;;;;;;;46.67;18.55;;;;;;;;;;5008945;28;20113;-69
2022/12/11 03:02:02;;;;;;;58.08;18.98;;;;;;;;;;5010426;28;20034;-69
2022/12/11 03:04:28;;;;;;;53.42;19.73;;;;;;;;;;5010418;28;20092;-69
2022/12/11 03:06:58;;;;;;;57.90;19.55;;;;;;;;;;5011155;28;20178;-69
2022/12/11 03:09:24;;;;;;;63.35;18.83;;;;;;;;;;5010858;28;20030;-69
2022/12/11 03:11:51;;;;;;;62.28;18.83;;;;;;;;;;5011158;28;20030;-69
2022/12/11 03:14:16;;;;;;;63.47;18.77;;;;;;;;;;5010597;28;20354;-69
2022/12/11 03:16:55;;;;;;;61.50;18.08;;;;;;;;;;5010851;28;20033;-69
2022/12/11 03:19:27;;;;;;;58.65;18.63;;;;;;;;;;5011181;28;20022;-69
2022/12/11 03:22:19;;;;;;;57.47;18.98;;;;;;;;;;5010929;28;20080;-69
2022/12/11 03:24:56;;;;;;;67.22;19.88;;;;;;;;;;5010762;28;20037;-68
2022/12/11 03:27:41;;;;;;;60.00;19.20;;;;;;;;;;5010339;28;20046;-68
2022/12/11 03:30:14;;;;;;;57.70;18.98;;;;;;;;;;5010400;28;20042;-69
2022/12/11 03:32:51;;;;;;;61.45;19.25;;;;;;;;;;5010252;28;20463;-69
2022/12/11 03:35:24;;;;;;;48.10;17.10;;;;;;;;;;5010378;28;20392;-68
2022/12/11 03:37:51;;;;;;;54.85;18.38;;;;;;;;;;5010532;28;20026;-69
2022/12/11 03:40:20;;;;;;;56.63;17.80;;;;;;;;;;5010648;28;20046;-69
2022/12/11 03:42:49;;;;;;;54.40;16.90;;;;;;;;;;5010782;28;20477;-69
2022/12/11 03:45:16;;;;;;;44.75;18.23;;;;;;;;;;5009529;28;20014;-69
2022/12/11 03:47:44;;;;;;;59.47;18.40;;;;;;;;;;5010811;28;20042;-69
2022/12/11 03:50:12;;;;;;;51.88;17.92;;;;;;;;;;5010914;28;20105;-68
2022/12/11 03:52:41;;;;;;;49.65;19.05;;;;;;;;;;5010723;28;20026;-68
2022/12/11 03:55:08;;;;;;;61.50;19.80;;;;;;;;;;5012615;28;20065;-68
2022/12/11 03:57:36;;;;;;;48.83;18.05;;;;;;;;;;5013673;28;20089;-68
2022/12/11 04:00:04;;;;;;;39.95;16.48;;;;;;;;;;5013847;28;20026;-68
2022/12/11 04:02:30;;;;;;;44.28;17.33;;;;;;;;;;5013488;28;20504;-68
2022/12/11 04:04:55;;;;;;;52.90;21.48;;;;;;;;;;5014402;28;20057;-69
2022/12/11 04:07:21;;;;;;;42.13;17.52;;;;;;;;;;5014334;28;20495;-69
2022/12/11 04:09:47;;;;;;;40.35;16.92;;;;;;;;;;5014267;28;20032;-68
2022/12/11 04:12:12;;;;;;;41.38;15.75;;;;;;;;;;5013771;28;20018;-68
2022/12/11 04:25:34;;;;;;;42.38;16.00;;;;;;;;;;5013744;28;20104;-68
2022/12/11 04:27:59;;;;;;;34.80;14.55;;;;;;;;;;5013705;28;20420;-68
2022/12/11 04:30:25;;;;;;;38.22;15.32;;;;;;;;;;5013889;28;20025;-68
2022/12/11 04:32:52;;;;;;;30.75;13.38;;;;;;;;;;5013738;28;20037;-68
2022/12/11 04:35:19;;;;;;;34.72;14.82;;;;;;;;;;5013896;28;20014;-68
2022/12/11 04:37:45;;;;;;;35.10;14.35;;;;;;;;;;5013577;28;20492;-69
2022/12/11 04:40:13;;;;;;;33.67;13.50;;;;;;;;;;5013539;28;20060;-68
2022/12/11 04:42:39;;;;;;;31.30;13.63;;;;;;;;;;5013436;28;20021;-69
2022/12/11 04:45:06;;;;;;;45.15;15.32;;;;;;;;;;5013012;28;20025;-69
2022/12/11 04:47:34;;;;;;;40.63;15.57;;;;;;;;;;5012880;28;20111;-69
2022/12/11 04:50:00;;;;;;;31.67;14.07;;;;;;;;;;5013028;28;20108;-69
2022/12/11 04:52:25;;;;;;;35.15;14.40;;;;;;;;;;5012864;28;20057;-69
2022/12/11 04:54:51;;;;;;;43.00;15.55;;;;;;;;;;5013237;28;20038;-69
2022/12/11 04:57:16;;;;;;;35.47;14.15;;;;;;;;;;5013419;28;20030;-68
2022/12/11 04:59:41;;;;;;;30.17;13.00;;;;;;;;;;5013196;28;20037;-68
2022/12/11 05:02:07;;;;;;;31.92;13.77;;;;;;;;;;5013223;28;20425;-69
2022/12/11 05:04:34;;;;;;;27.98;13.05;;;;;;;;;;5013091;28;20022;-69
2022/12/11 05:07:00;;;;;;;24.88;11.93;;;;;;;;;;5012122;28;20030;-69
2022/12/11 05:09:26;;;;;;;30.27;12.38;;;;;;;;;;5013012;28;20026;-68
2022/12/11 05:11:53;;;;;;;31.80;12.63;;;;;;;;;;5012854;28;20088;-68
2022/12/11 05:14:19;;;;;;;28.77;12.85;;;;;;;;;;5012264;28;20088;-68
2022/12/11 05:16:44;;;;;;;28.25;12.30;;;;;;;;;;5012354;28;20038;-69
2022/12/11 05:19:10;;;;;;;30.83;11.52;;;;;;;;;;5012410;28;20064;-71
2022/12/11 05:21:35;;;;;;;30.33;12.45;;;;;;;;;;5012615;28;20036;-70
2022/12/11 05:24:01;;;;;;;31.45;12.40;;;;;;;;;;5012644;28;20382;-69
2022/12/11 05:26:27;;;;;;;29.17;12.93;;;;;;;;;;5012512;28;20061;-70
2022/12/11 05:28:54;;;;;;;24.25;11.32;;;;;;;;;;5012579;28;20034;-70
2022/12/11 05:31:22;;;;;;;28.85;12.02;;;;;;;;;;5012773;28;20025;-70
2022/12/11 05:33:49;;;;;;;30.48;10.35;;;;;;;;;;5012535;28;20525;-70
2022/12/11 05:36:18;;;;;;;21.98;10.52;;;;;;;;;;5012427;28;20026;-69
2022/12/11 05:38:44;;;;;;;21.33;9.88;;;;;;;;;;5012444;28;20028;-70
2022/12/11 05:41:13;;;;;;;21.15;10.88;;;;;;;;;;5012666;28;20532;-70
2022/12/11 05:43:39;;;;;;;19.13;9.30;;;;;;;;;;5012125;28;20033;-70
2022/12/11 05:46:16;;;;;;;21.90;10.63;;;;;;;;;;5011859;28;20389;-69
2022/12/11 05:48:43;;;;;;;19.25;9.20;;;;;;;;;;5011902;28;20058;-70
2022/12/11 05:51:09;;;;;;;18.42;8.95;;;;;;;;;;5011858;28;20026;-70
2022/12/11 05:53:36;;;;;;;18.42;8.88;;;;;;;;;;5011729;28;20080;-70
2022/12/11 05:56:29;;;;;;;16.48;8.88;;;;;;;;;;5012126;28;20099;-70
2022/12/11 05:58:55;;;;;;;19.80;9.32;;;;;;;;;;5010769;28;20117;-70
2022/12/11 06:01:29;;;;;;;16.40;8.40;;;;;;;;;;5012173;28;20080;-70
2022/12/11 06:03:56;;;;;;;17.58;8.98;;;;;;;;;;5011957;28;20065;-69
2022/12/11 06:06:22;;;;;;;19.85;9.57;;;;;;;;;;5011848;28;20022;-67
2022/12/11 06:08:56;;;;;;;19.23;9.77;;;;;;;;;;5012043;28;20025;-67
2022/12/11 06:11:23;;;;;;;21.10;8.98;;;;;;;;;;5011985;28;20095;-68
2022/12/11 06:13:48;;;;;;;21.33;9.38;;;;;;;;;;5011552;28;20033;-67
2022/12/11 06:16:15;;;;;;;21.75;9.48;;;;;;;;;;5011225;28;20495;-69
2022/12/11 06:18:43;;;;;;;18.48;8.98;;;;;;;;;;5010950;28;20029;-67
2022/12/11 06:21:13;;;;;;;16.40;8.10;;;;;;;;;;5010959;28;20622;-67
2022/12/11 06:23:39;;;;;;;18.50;8.77;;;;;;;;;;5011566;28;20029;-70
2022/12/11 06:26:04;;;;;;;19.33;9.23;;;;;;;;;;5011587;28;20471;-70
2022/12/11 06:28:30;;;;;;;19.38;9.13;;;;;;;;;;5011450;28;20034;-70
2022/12/11 06:30:59;;;;;;;19.58;7.85;;;;;;;;;;5011933;28;20481;-70
2022/12/11 06:33:25;;;;;;;15.63;8.00;;;;;;;;;;5011616;28;20039;-69
2022/12/11 06:35:51;;;;;;;17.00;8.95;;;;;;;;;;5011444;28;20037;-70
2022/12/11 06:38:17;;;;;;;22.63;9.27;;;;;;;;;;5011322;28;20033;-70
2022/12/11 06:40:43;;;;;;;21.08;9.43;;;;;;;;;;5011478;28;20064;-70
2022/12/11 06:43:09;;;;;;;18.15;9.00;;;;;;;;;;5011307;28;20033;-69
2022/12/11 06:45:36;;;;;;;18.85;8.90;;;;;;;;;;5010713;28;20030;-70
2022/12/11 06:48:01;;;;;;;16.63;8.20;;;;;;;;;;5010910;28;20109;-69
2022/12/11 06:50:27;;;;;;;19.60;9.50;;;;;;;;;;5010656;28;20141;-69
2022/12/11 06:52:52;;;;;;;21.30;9.93;;;;;;;;;;5010807;28;20065;-69
2022/12/11 06:55:18;;;;;;;21.13;10.20;;;;;;;;;;5011394;28;20029;-69
2022/12/11 06:57:43;;;;;;;25.17;10.80;;;;;;;;;;5011245;28;20038;-69
2022/12/11 07:00:09;;;;;;;18.23;8.55;;;;;;;;;;5011451;28;20026;-69
2022/12/11 07:02:35;;;;;;;17.60;9.43;;;;;;;;;;5010972;28;20026;-69
2022/12/11 07:05:00;;;;;;;20.77;9.82;;;;;;;;;;5011079;28;20493;-69
2022/12/11 07:07:26;;;;;;;27.63;10.88;;;;;;;;;;5011253;28;20026;-70
2022/12/11 07:09:51;;;;;;;49.15;26.40;;;;;;;;;;5011205;28;20030;-69
2022/12/11 07:12:17;;;;;;;32.97;20.40;;;;;;;;;;5010512;28;20034;-69
2022/12/11 07:14:42;;;;;;;27.33;14.45;;;;;;;;;;5010427;28;20022;-70
2022/12/11 07:17:08;;;;;;;23.95;11.90;;;;;;;;;;5010503;28;20105;-70
2022/12/11 07:19:33;;;;;;;29.60;12.32;;;;;;;;;;5010548;28;20388;-70
2022/12/11 07:21:58;;;;;;;26.83;13.73;;;;;;;;;;5011163;28;20022;-69
2022/12/11 07:24:24;;;;;;;29.13;13.98;;;;;;;;;;5010989;28;20026;-70
2022/12/11 07:26:50;;;;;;;21.95;11.57;;;;;;;;;;5010534;28;20038;-69
2022/12/11 07:29:15;;;;;;;28.33;11.60;;;;;;;;;;5010965;28;20038;-70
2022/12/11 07:31:40;;;;;;;20.48;9.38;;;;;;;;;;5014136;28;20105;-70
2022/12/11 07:34:06;;;;;;;25.20;10.90;;;;;;;;;;5014215;28;20473;-70
2022/12/11 07:36:32;;;;;;;26.00;11.30;;;;;;;;;;5014486;28;20025;-70
2022/12/11 07:38:59;;;;;;;28.27;11.13;;;;;;;;;;5014989;28;20084;-70
2022/12/11 07:41:27;;;;;;;23.00;10.65;;;;;;;;;;5014831;28;20101;-70
2022/12/11 07:43:54;;;;;;;21.25;9.98;;;;;;;;;;5014688;28;20034;-70
2022/12/11 07:46:23;;;;;;;24.23;10.63;;;;;;;;;;5014444;28;20503;-69
2022/12/11 07:48:48;;;;;;;25.48;12.98;;;;;;;;;;5014091;28;20361;-69
2022/12/11 07:51:17;;;;;;;32.38;14.90;;;;;;;;;;5013240;28;20121;-69
2022/12/11 07:53:44;;;;;;;29.42;14.18;;;;;;;;;;5014397;28;20068;-70
2022/12/11 07:56:10;;;;;;;32.88;15.50;;;;;;;;;;5014402;28;20033;-69
2022/12/11 07:58:37;;;;;;;38.47;17.40;;;;;;;;;;5014365;28;20022;-69
2022/12/11 08:01:04;;;;;;;40.83;16.27;;;;;;;;;;5005472;28;20026;-69
2022/12/11 08:03:30;;;;;;;32.53;16.35;;;;;;;;;;4993918;28;20034;-69
2022/12/11 08:05:55;;;;;;;34.92;15.90;;;;;;;;;;4993996;28;20034;-70
2022/12/11 08:08:21;;;;;;;37.92;14.93;;;;;;;;;;4993988;28;20112;-69
2022/12/11 08:10:46;;;;;;;25.30;14.35;;;;;;;;;;4994367;28;20030;-69
2022/12/11 08:13:12;;;;;;;26.02;12.02;;;;;;;;;;4994439;28;20493;-69
2022/12/11 08:15:37;;;;;;;26.48;13.57;;;;;;;;;;4994396;28;20022;-69
2022/12/11 08:18:04;;;;;;;27.52;13.77;;;;;;;;;;4993729;28;20062;-69
2022/12/11 08:20:29;;;;;;;27.30;13.15;;;;;;;;;;4994290;28;20030;-67
2022/12/11 08:22:55;;;;;;;26.42;12.35;;;;;;;;;;4993100;28;20041;-70
2022/12/11 08:25:21;;;;;;;28.30;12.80;;;;;;;;;;4994085;28;20045;-70
2022/12/11 08:27:47;;;;;;;28.92;12.63;;;;;;;;;;4999247;28;20080;-70
2022/12/11 08:30:12;;;;;;;27.67;13.07;;;;;;;;;;5013839;28;20057;-70
2022/12/11 08:32:38;;;;;;;25.60;10.95;;;;;;;;;;5013373;28;20101;-70
2022/12/11 08:35:04;;;;;;;21.92;11.05;;;;;;;;;;5013478;28;20040;-68
2022/12/11 08:37:29;;;;;;;28.60;12.52;;;;;;;;;;5013440;28;20026;-70
2022/12/11 08:39:55;;;;;;;26.90;14.13;;;;;;;;;;5013595;28;20056;-69
2022/12/11 08:42:20;;;;;;;24.05;12.30;;;;;;;;;;5012223;28;20021;-70
2022/12/11 08:44:46;;;;;;;23.20;11.98;;;;;;;;;;5011592;28;20034;-70
2022/12/11 08:47:11;;;;;;;25.58;12.27;;;;;;;;;;5012782;28;20108;-69
2022/12/11 08:49:37;;;;;;;25.13;12.43;;;;;;;;;;5012918;28;20129;-69
2022/12/11 08:52:04;;;;;;;21.15;11.32;;;;;;;;;;5012967;28;20143;-70
2022/12/11 08:54:29;;;;;;;24.83;12.55;;;;;;;;;;5013337;28;20139;-69
2022/12/11 08:56:55;;;;;;;20.98;11.32;;;;;;;;;;5013328;28;20061;-70
2022/12/11 08:59:21;;;;;;;26.02;10.88;;;;;;;;;;5013360;28;20029;-69
2022/12/11 09:01:46;;;;;;;23.25;12.23;;;;;;;;;;5013045;28;20014;-70
2022/12/11 09:04:12;;;;;;;31.08;14.63;;;;;;;;;;5013051;28;20531;-70
2022/12/11 09:06:37;;;;;;;25.08;12.77;;;;;;;;;;5012798;28;20026;-70
2022/12/11 09:09:04;;;;;;;26.80;12.90;;;;;;;;;;5012572;28;20026;-70
2022/12/11 09:11:33;;;;;;;25.35;13.13;;;;;;;;;;5012912;28;20025;-70
2022/12/11 09:13:59;;;;;;;25.92;13.18;;;;;;;;;;5012427;28;20426;-70
2022/12/11 09:16:26;;;;;;;27.23;14.10;;;;;;;;;;5011977;28;20100;-69
2022/12/11 09:18:54;;;;;;;28.92;14.00;;;;;;;;;;5012208;28;20109;-69
2022/12/11 09:21:22;;;;;;;28.98;15.02;;;;;;;;;;5012518;28;20025;-69
2022/12/11 09:23:48;;;;;;;36.95;17.00;;;;;;;;;;5012894;28;20029;-70
2022/12/11 09:26:16;;;;;;;45.78;17.23;;;;;;;;;;5012553;28;20049;-70
2022/12/11 09:28:42;;;;;;;44.20;18.42;;;;;;;;;;5012307;28;20117;-68
2022/12/11 09:31:19;;;;;;;44.85;18.15;;;;;;;;;;5012336;28;20497;-70
2022/12/11 09:33:45;;;;;;;26.83;11.43;;;;;;;;;;5012633;28;20076;-69
2022/12/11 09:36:11;;;;;;;21.23;10.68;;;;;;;;;;5010986;28;20026;-69
2022/12/11 09:38:37;;;;;;;24.40;11.57;;;;;;;;;;5012314;28;20060;-69
2022/12/11 09:41:15;;;;;;;20.92;10.68;;;;;;;;;;5012263;28;20447;-69
2022/12/11 09:44:02;;;;;;;19.88;9.63;;;;;;;;;;5011750;28;20200;-69
2022/12/11 09:46:28;;;;;;;20.75;11.23;;;;;;;;;;5011692;28;20030;-70
2022/12/11 09:48:54;;;;;;;23.15;11.32;;;;;;;;;;5011729;28;20033;-69
2022/12/11 09:51:29;;;;;;;22.27;11.18;;;;;;;;;;5012099;28;20535;-70
2022/12/11 09:53:58;;;;;;;20.92;10.90;;;;;;;;;;5011767;28;20381;-70
2022/12/11 09:56:26;;;;;;;22.58;11.10;;;;;;;;;;5012112;28;20034;-70
2022/12/11 09:59:26;;;;;;;20.55;10.05;;;;;;;;;;5010587;28;20438;-69
2022/12/11 10:02:04;;;;;;;23.30;10.75;;;;;;;;;;5012291;28;20026;-70
2022/12/11 10:05:00;;;;;;;22.23;9.77;;;;;;;;;;5011816;28;20030;-68
2022/12/11 10:08:00;;;;;;;19.27;10.40;;;;;;;;;;5010365;28;20061;-70
2022/12/11 10:10:55;;;;;;;;;;;;;;;;;;4992684;28;20022;-70
2022/12/11 10:13:39;;;;;;;17.70;9.20;;;;;;;;;;4982943;28;20020;-70
2022/12/11 10:16:18;;;;;;;22.35;9.65;;;;;;;;;;4991068;28;20046;-70
2022/12/11 10:18:44;;;;;;;20.33;9.38;;;;;;;;;;4991988;28;20026;-69
2022/12/11 10:21:13;;;;;;;28.55;10.80;;;;;;;;;;4992097;28;20034;-70
2022/12/11 10:24:00;;;;;;;23.45;10.55;;;;;;;;;;4991978;28;20031;-70
2022/12/11 10:26:27;;;;;;;26.20;11.38;;;;;;;;;;4991602;28;20077;-70
2022/12/11 10:28:57;;;;;;;22.10;11.40;;;;;;;;;;5005897;28;20030;-68
2022/12/11 10:31:40;;;;;;;23.95;11.50;;;;;;;;;;5011482;28;20025;-68
2022/12/11 10:34:34;;;;;;;23.13;11.73;;;;;;;;;;5011721;28;20032;-70
2022/12/11 10:37:01;;;;;;;17.35;9.23;;;;;;;;;;5011452;28;20025;-69
2022/12/11 10:39:27;;;;;;;16.25;8.38;;;;;;;;;;5011568;28;20322;-71
2022/12/11 10:41:54;;;;;;;17.90;8.85;;;;;;;;;;5010738;28;20401;-69
2022/12/11 10:44:26;;;;;;;18.67;8.75;;;;;;;;;;4998177;28;20106;-69
2022/12/11 10:47:12;;;;;;;19.10;10.18;;;;;;;;;;4991398;28;20026;-69
2022/12/11 10:49:43;;;;;;;16.95;8.38;;;;;;;;;;4989670;28;20046;-69
2022/12/11 10:52:21;;;;;;;14.57;8.15;;;;;;;;;;4991361;28;20030;-70
2022/12/11 10:55:05;;;;;;;18.13;8.35;;;;;;;;;;4991345;28;20539;-70
2022/12/11 10:57:35;;;;;;;17.10;8.95;;;;;;;;;;4991476;28;20117;-70
2022/12/11 11:00:03;;;;;;;68.10;27.95;;;;;;;;;;4991589;28;20382;-70
2022/12/11 11:02:40;;;;;;;24.45;14.68;;;;;;;;;;4992122;28;20385;-69
2022/12/11 11:05:34;;;;;;;17.13;8.98;;;;;;;;;;4988328;28;20031;-69
2022/12/11 11:08:19;;;;;;;18.23;9.20;;;;;;;;;;4992779;28;20037;-69
2022/12/11 11:10:55;;;;;;;17.90;8.75;;;;;;;;;;4992928;28;20042;-70
2022/12/11 11:13:23;;;;;;;18.67;8.43;;;;;;;;;;4992750;28;20026;-69
2022/12/11 11:15:50;;;;;;;16.08;9.18;;;;;;;;;;4992813;28;20054;-69
2022/12/11 11:18:26;;;;;;;16.13;8.77;;;;;;;;;;4992690;28;20060;-69
2022/12/11 11:20:53;;;;;;;17.95;8.85;;;;;;;;;;4992906;28;20036;-70
2022/12/11 11:23:23;;;;;;;19.75;9.90;;;;;;;;;;4992794;28;20126;-70
2022/12/11 11:25:50;;;;;;;16.77;7.95;;;;;;;;;;4992505;28;20038;-69
2022/12/11 11:28:24;;;;;;;18.00;9.18;;;;;;;;;;5001938;28;20471;-67
2022/12/11 11:30:55;;;;;;;23.05;10.82;;;;;;;;;;5012120;28;20021;-70
2022/12/11 11:33:22;;;;;;;57.90;22.25;;;;;;;;;;4996137;28;20030;-70
2022/12/11 11:35:56;;;;;;;34.65;16.10;;;;;;;;;;4992700;28;20041;-70
2022/12/11 11:38:36;;;;;;;24.40;13.25;;;;;;;;;;4992506;28;20034;-70
2022/12/11 11:41:11;;;;;;;24.25;13.38;;;;;;;;;;4992337;28;20030;-69
2022/12/11 11:43:43;;;;;;;23.23;11.45;;;;;;;;;;4991714;28;20097;-69
2022/12/11 11:46:23;;;;;;;20.80;12.90;;;;;;;;;;4992727;28;20338;-69
2022/12/11 11:49:13;;;;;;;33.35;17.50;;;;;;;;;;4992437;28;20483;-69
2022/12/11 11:51:44;;;;;;;23.25;12.20;;;;;;;;;;4992419;28;20033;-69
2022/12/11 11:54:54;;;;;;;31.67;17.98;;;;;;;;;;4992537;28;20049;-70
2022/12/11 11:57:23;;;;;;;;;;;;;;;;;;4992618;28;20482;-69
2022/12/11 11:59:54;;;;;;;21.30;9.75;;;;;;;;;;4994062;28;19917;-69
2022/12/11 12:02:20;;;;;;;43.70;22.05;;;;;;;;;;4994764;28;20398;-69
2022/12/11 12:04:48;;;;;;;18.58;9.15;;;;;;;;;;5010880;28;20030;-69
2022/12/11 12:07:19;;;;;;;24.25;14.00;;;;;;;;;;5011901;28;20052;-69
2022/12/11 12:10:19;;;;;;;19.35;10.95;;;;;;;;;;5010455;28;20495;-69
2022/12/11 12:13:03;;;;;;;36.17;17.25;;;;;;;;;;4989902;28;20169;-69
2022/12/11 12:15:47;;;;;;;29.33;13.35;;;;;;;;;;4991151;28;20034;-69
2022/12/11 12:18:37;;;;;;;31.30;14.65;;;;;;;;;;4993472;28;20457;-69
2022/12/11 12:21:03;;;;;;;22.83;9.35;;;;;;;;;;4954660;29;20070;-69
2022/12/11 12:23:31;;;;;;;21.40;11.20;;;;;;;;;;4954546;29;20075;-69
2022/12/11 12:26:27;;;;;;;23.85;10.70;;;;;;;;;;4954557;29;20561;-69
2022/12/11 12:28:59;;;;;;;25.85;15.35;;;;;;;;;;4946561;29;20514;-70
2022/12/11 12:31:45;;;;;;;22.60;12.38;;;;;;;;;;4954455;29;20511;-69
2022/12/11 12:34:42;;;;;;;22.80;12.75;;;;;;;;;;4954468;29;20028;-73
2022/12/11 12:37:19;;;;;;;19.55;11.43;;;;;;;;;;4954478;29;20122;-72
2022/12/11 12:40:02;;;;;;;15.95;8.38;;;;;;;;;;4954326;29;20062;-70
2022/12/11 12:42:44;;;;;;;30.13;11.93;;;;;;;;;;4954417;29;20051;-68
2022/12/11 12:45:12;;;;;;;14.50;6.75;;;;;;;;;;4954495;29;20559;-69
2022/12/11 12:47:40;;;;;;;15.93;8.60;;;;;;;;;;4954460;29;20040;-69
2022/12/11 12:50:22;;;;;;;18.95;10.65;;;;;;;;;;4954556;28;20368;-69
2022/12/11 12:52:50;;;;;;;22.17;13.65;;;;;;;;;;4953868;29;20043;-71
2022/12/11 12:55:27;;;;;;;24.75;11.43;;;;;;;;;;4954835;28;20514;-68
2022/12/11 12:58:01;;;;;;;28.88;16.20;;;;;;;;;;4962398;28;20121;-69
2022/12/11 13:00:38;;;;;;;24.90;13.38;;;;;;;;;;4975686;28;20018;-73
2022/12/11 13:03:21;;;;;;;34.65;16.30;;;;;;;;;;4975712;28;20034;-69
2022/12/11 13:06:03;;;;;;;19.90;10.40;;;;;;;;;;4975662;28;20470;-69
2022/12/11 13:08:49;;;;;;;28.98;13.00;;;;;;;;;;4975152;28;20524;-69
2022/12/11 13:11:17;;;;;;;29.95;14.18;;;;;;;;;;4975567;28;20433;-67
2022/12/11 13:13:59;;;;;;;18.90;9.00;;;;;;;;;;4975423;28;20109;-68
2022/12/11 13:16:34;;;;;;;17.13;9.98;;;;;;;;;;4975288;28;20081;-68
2022/12/11 13:19:00;;;;;;;17.33;9.63;;;;;;;;;;4975361;28;20065;-68
2022/12/11 13:21:32;;;;;;;19.45;10.15;;;;;;;;;;4975114;28;20031;-68
2022/12/11 13:24:26;;;;;;;21.05;11.60;;;;;;;;;;4975301;28;20035;-68
2022/12/11 13:26:53;;;;;;;20.25;11.55;;;;;;;;;;4974192;28;20063;-68
2022/12/11 13:29:32;;;;;;;17.23;10.35;;;;;;;;;;5008568;28;20425;-67
2022/12/11 13:32:22;;;;;;;26.25;15.32;;;;;;;;;;5014008;28;20030;-68
2022/12/11 13:35:02;;;;;;;17.63;10.02;;;;;;;;;;5012968;28;20042;-68
2022/12/11 13:37:31;;;;;;;21.88;12.55;;;;;;;;;;4994027;28;20030;-68
2022/12/11 13:39:58;;;;;;;17.30;9.93;;;;;;;;;;4994251;28;20038;-67
2022/12/11 13:42:31;;;;;;;18.92;10.25;;;;;;;;;;4994012;28;20532;-67
2022/12/11 13:44:57;;;;;;;18.73;8.15;;;;;;;;;;4992882;28;20030;-68
2022/12/11 13:47:23;;;;;;;13.40;7.65;;;;;;;;;;4994128;28;20018;-67
2022/12/11 13:49:54;;;;;;;17.65;10.38;;;;;;;;;;4994020;28;20030;-68
2022/12/11 13:52:24;;;;;;;17.83;8.73;;;;;;;;;;4993643;28;20065;-68
2022/12/11 13:54:52;;;;;;;22.60;10.02;;;;;;;;;;4993612;28;20084;-69
2022/12/11 13:57:20;;;;;;;19.10;9.82;;;;;;;;;;4993800;28;20030;-68
2022/12/11 13:59:55;;;;;;;17.90;9.75;;;;;;;;;;4992409;28;20477;-69
2022/12/11 14:02:37;;;;;;;18.30;8.77;;;;;;;;;;4993634;28;20062;-68
2022/12/11 14:05:09;;;;;;;19.80;9.98;;;;;;;;;;4993470;28;20132;-68
2022/12/11 14:07:41;;;;;;;24.65;10.63;;;;;;;;;;4993812;28;20030;-69
2022/12/11 14:10:13;;;;;;;23.75;11.88;;;;;;;;;;4993717;28;20023;-68
2022/12/11 14:12:44;;;;;;;18.52;9.18;;;;;;;;;;4993516;28;20030;-69
2022/12/11 14:15:14;;;;;;;23.50;11.43;;;;;;;;;;4993566;28;20447;-68
2022/12/11 14:17:42;;;;;;;22.25;10.07;;;;;;;;;;4993613;28;20030;-69
2022/12/11 14:20:34;;;;;;;21.83;10.00;;;;;;;;;;4993090;28;20056;-69
2022/12/11 14:23:14;;;;;;;21.63;9.70;;;;;;;;;;4993060;28;20121;-69
2022/12/11 14:25:40;;;;;;;20.98;10.40;;;;;;;;;;4993258;28;20042;-69
2022/12/11 14:28:15;;;;;;;20.55;9.77;;;;;;;;;;5000889;28;20025;-69
2022/12/11 14:30:47;;;;;;;21.13;11.48;;;;;;;;;;5012837;28;20072;-67
2022/12/11 14:33:15;;;;;;;23.80;10.55;;;;;;;;;;5011424;28;20120;-69
2022/12/11 14:35:42;;;;;;;21.25;10.57;;;;;;;;;;5012666;28;20117;-69
2022/12/11 14:38:29;;;;;;;18.60;10.55;;;;;;;;;;5012735;28;20065;-69
2022/12/11 14:41:11;;;;;;;22.95;9.80;;;;;;;;;;5012587;28;20124;-71
2022/12/11 14:43:49;;;;;;;21.67;11.00;;;;;;;;;;5012741;28;20029;-70
2022/12/11 14:46:19;;;;;;;65.07;27.58;;;;;;;;;;5012801;28;20101;-68
2022/12/11 14:48:54;;;;;;;81.75;32.65;;;;;;;;;;5012402;28;20473;-69
2022/12/11 14:51:20;;;;;;;45.95;20.50;;;;;;;;;;5012796;28;20038;-69